Time;durP1;ratioP1;P1;durP2;ratioP2;P2;SDS_P1;SDS_P2;PMS_P1;PMS_P2;Temp;Humidity;BMP_temperature;BMP_pressure;BME280_temperature;BME280_humidity;BME280_pressure;Samples;Min_cycle;Max_cycle;Signal;HPM_P1;HPM_P2
2022/07/27 00:00:48;;;;;;;5.85;1.73;;;;;;;;;;5046150;28;20104;-63
2022/07/27 00:03:14;;;;;;;3.78;1.60;;;;;;;;;;5048706;28;20041;-62
2022/07/27 00:05:39;;;;;;;7.88;1.40;;;;;;;;;;5042475;28;20107;-62
2022/07/27 00:08:05;;;;;;;6.78;1.35;;;;;;;;;;5052134;28;20040;-62
2022/07/27 00:10:34;;;;;;;4.07;1.45;;;;;;;;;;5049110;28;20032;-62
2022/07/27 00:13:00;;;;;;;6.43;1.75;;;;;;;;;;5013800;28;20029;-62
2022/07/27 00:15:25;;;;;;;5.03;1.50;;;;;;;;;;5032774;28;20033;-62
2022/07/27 00:17:52;;;;;;;3.92;1.55;;;;;;;;;;5045242;28;20056;-63
2022/07/27 00:20:17;;;;;;;4.50;1.80;;;;;;;;;;5031577;28;20497;-63
2022/07/27 00:22:43;;;;;;;5.47;1.48;;;;;;;;;;5050885;28;20033;-63
2022/07/27 00:25:08;;;;;;;4.70;1.25;;;;;;;;;;5037628;28;20111;-63
2022/07/27 00:27:34;;;;;;;5.35;1.70;;;;;;;;;;5037899;28;20040;-62
2022/07/27 00:30:00;;;;;;;3.67;1.48;;;;;;;;;;5040626;28;20036;-64
2022/07/27 00:32:25;;;;;;;3.28;1.33;;;;;;;;;;5049600;28;20032;-62
2022/07/27 00:34:50;;;;;;;3.25;1.50;;;;;;;;;;5032412;28;20059;-62
2022/07/27 00:37:16;;;;;;;4.32;1.60;;;;;;;;;;5032383;28;20044;-62
2022/07/27 00:39:42;;;;;;;3.10;1.60;;;;;;;;;;5031508;28;20026;-62
2022/07/27 00:42:07;;;;;;;3.47;1.50;;;;;;;;;;5034832;28;20117;-62
2022/07/27 00:44:33;;;;;;;8.98;1.88;;;;;;;;;;5044136;28;20107;-62
2022/07/27 00:46:58;;;;;;;4.80;1.33;;;;;;;;;;5050062;28;20619;-63
2022/07/27 00:49:27;;;;;;;2.42;1.30;;;;;;;;;;5038644;28;20327;-62
2022/07/27 00:51:54;;;;;;;3.65;1.60;;;;;;;;;;5046633;28;20477;-63
2022/07/27 00:54:20;;;;;;;3.13;1.67;;;;;;;;;;5030831;28;20049;-62
2022/07/27 00:56:46;;;;;;;3.95;1.80;;;;;;;;;;5030451;28;20041;-62
2022/07/27 00:59:13;;;;;;;5.10;1.77;;;;;;;;;;5030370;28;20109;-63
2022/07/27 01:01:38;;;;;;;5.70;1.60;;;;;;;;;;5040347;28;20029;-62
2022/07/27 01:04:04;;;;;;;5.13;1.60;;;;;;;;;;5049477;28;20033;-63
2022/07/27 01:06:31;;;;;;;4.50;1.42;;;;;;;;;;5014656;28;20025;-62
2022/07/27 01:11:43;;;;;;;10.05;1.60;;;;;;;;;;5031707;28;20068;-62
2022/07/27 01:14:11;;;;;;;7.10;1.77;;;;;;;;;;5030158;28;20041;-63
2022/07/27 01:16:36;;;;;;;4.80;1.80;;;;;;;;;;5039172;28;20057;-61
2022/07/27 01:19:02;;;;;;;3.60;1.70;;;;;;;;;;5031275;28;20066;-63
2022/07/27 01:21:27;;;;;;;3.95;1.65;;;;;;;;;;5043674;28;20033;-63
2022/07/27 01:23:53;;;;;;;4.22;1.80;;;;;;;;;;5030182;28;20033;-63
2022/07/27 01:26:19;;;;;;;4.70;1.60;;;;;;;;;;5031319;28;20030;-62
2022/07/27 01:28:45;;;;;;;7.32;1.70;;;;;;;;;;5029519;28;20038;-63
2022/07/27 01:31:10;;;;;;;6.63;1.60;;;;;;;;;;5040432;28;20037;-63
2022/07/27 01:33:36;;;;;;;5.60;1.70;;;;;;;;;;5031244;28;20124;-63
2022/07/27 01:36:01;;;;;;;3.50;1.77;;;;;;;;;;5033991;28;20597;-63
2022/07/27 01:38:27;;;;;;;6.82;1.75;;;;;;;;;;5049727;28;20112;-62
2022/07/27 01:40:53;;;;;;;5.70;1.63;;;;;;;;;;5045068;28;20036;-64
2022/07/27 01:43:19;;;;;;;5.93;1.80;;;;;;;;;;5030667;28;20486;-62
2022/07/27 01:45:45;;;;;;;5.70;1.60;;;;;;;;;;5039767;28;20039;-62
2022/07/27 01:48:10;;;;;;;4.82;1.70;;;;;;;;;;5034940;28;20034;-62
2022/07/27 01:50:37;;;;;;;4.97;1.63;;;;;;;;;;5029378;28;20439;-62
2022/07/27 01:53:02;;;;;;;7.10;1.98;;;;;;;;;;5030288;28;20037;-62
2022/07/27 01:55:28;;;;;;;4.13;1.67;;;;;;;;;;5029493;28;20041;-62
2022/07/27 01:57:53;;;;;;;7.25;1.70;;;;;;;;;;5030178;28;20041;-63
2022/07/27 02:00:18;;;;;;;5.15;1.90;;;;;;;;;;5029726;28;20025;-62
2022/07/27 02:02:44;;;;;;;7.03;1.80;;;;;;;;;;5035754;28;20028;-64
2022/07/27 02:05:12;;;;;;;3.08;1.70;;;;;;;;;;5038902;28;20049;-63
2022/07/27 02:07:39;;;;;;;5.07;2.10;;;;;;;;;;5047556;28;20112;-64
2022/07/27 02:10:05;;;;;;;5.72;1.92;;;;;;;;;;5029474;28;20585;-63
2022/07/27 02:12:37;;;;;;;5.90;2.20;;;;;;;;;;5031623;28;20033;-63
2022/07/27 02:15:11;;;;;;;7.00;2.08;;;;;;;;;;5029400;28;20116;-63
2022/07/27 02:17:38;;;;;;;6.30;1.90;;;;;;;;;;5030831;28;20037;-63
2022/07/27 02:20:05;;;;;;;5.53;2.10;;;;;;;;;;5026404;28;20037;-63
2022/07/27 02:22:30;;;;;;;4.25;1.85;;;;;;;;;;5030698;28;20108;-63
2022/07/27 02:24:56;;;;;;;4.40;2.00;;;;;;;;;;5034305;28;20132;-64
2022/07/27 02:27:23;;;;;;;7.38;2.40;;;;;;;;;;5044463;28;20044;-63
2022/07/27 02:29:49;;;;;;;7.90;2.35;;;;;;;;;;5032771;28;20389;-63
2022/07/27 02:32:14;;;;;;;3.80;1.90;;;;;;;;;;5032811;28;20099;-63
2022/07/27 02:34:39;;;;;;;5.07;1.90;;;;;;;;;;5039031;28;20060;-62
2022/07/27 02:37:05;;;;;;;4.00;2.00;;;;;;;;;;5037024;28;20052;-62
2022/07/27 02:39:30;;;;;;;4.05;1.95;;;;;;;;;;5043368;28;20061;-62
2022/07/27 02:41:56;;;;;;;5.07;2.00;;;;;;;;;;5052281;28;20037;-62
2022/07/27 02:44:21;;;;;;;3.95;1.90;;;;;;;;;;5049361;28;20562;-61
2022/07/27 02:46:47;;;;;;;4.90;2.20;;;;;;;;;;5034239;28;20044;-62
2022/07/27 02:49:12;;;;;;;6.50;2.10;;;;;;;;;;5041517;28;20053;-63
2022/07/27 02:51:37;;;;;;;8.75;2.20;;;;;;;;;;5043001;28;20037;-63
2022/07/27 02:54:03;;;;;;;6.07;2.40;;;;;;;;;;5036430;28;20068;-63
2022/07/27 02:56:28;;;;;;;6.45;2.40;;;;;;;;;;5035681;28;20056;-62
2022/07/27 02:58:54;;;;;;;5.00;2.20;;;;;;;;;;5046074;28;20067;-63
2022/07/27 03:01:20;;;;;;;5.55;2.00;;;;;;;;;;5045177;28;20037;-62
2022/07/27 03:03:46;;;;;;;4.85;2.17;;;;;;;;;;5035751;28;20029;-62
2022/07/27 03:06:11;;;;;;;6.88;2.35;;;;;;;;;;5038573;28;20541;-62
2022/07/27 03:08:37;;;;;;;7.20;2.45;;;;;;;;;;5042874;28;20037;-62
2022/07/27 03:11:03;;;;;;;6.90;2.67;;;;;;;;;;5034003;28;20025;-62
2022/07/27 03:13:28;;;;;;;8.57;2.38;;;;;;;;;;5043828;28;20478;-62
2022/07/27 03:15:54;;;;;;;7.85;2.50;;;;;;;;;;5050916;28;20120;-62
2022/07/27 03:18:20;;;;;;;6.82;2.40;;;;;;;;;;5038901;28;20030;-62
2022/07/27 03:20:45;;;;;;;6.13;2.63;;;;;;;;;;5033157;28;20473;-62
2022/07/27 03:23:11;;;;;;;5.15;2.70;;;;;;;;;;5042689;28;20525;-62
2022/07/27 03:25:37;;;;;;;6.45;2.60;;;;;;;;;;5049506;28;20037;-63
2022/07/27 03:28:02;;;;;;;5.78;2.83;;;;;;;;;;5040915;28;20029;-63
2022/07/27 03:30:28;;;;;;;4.68;2.75;;;;;;;;;;5033296;28;20111;-62
2022/07/27 03:32:53;;;;;;;8.52;2.97;;;;;;;;;;5029891;28;20485;-62
2022/07/27 03:35:18;;;;;;;5.68;2.50;;;;;;;;;;5028340;28;20032;-62
2022/07/27 03:37:44;;;;;;;8.13;3.08;;;;;;;;;;5028351;28;20025;-62
2022/07/27 03:40:10;;;;;;;6.05;3.00;;;;;;;;;;5016544;28;20718;-62
2022/07/27 03:42:37;;;;;;;6.63;2.85;;;;;;;;;;5035059;28;20029;-62
2022/07/27 03:45:04;;;;;;;7.55;2.92;;;;;;;;;;5048867;28;20029;-62
2022/07/27 03:47:29;;;;;;;5.97;3.13;;;;;;;;;;5039765;28;20031;-62
2022/07/27 03:49:55;;;;;;;6.22;3.13;;;;;;;;;;5036146;28;20028;-62
2022/07/27 03:52:20;;;;;;;7.28;3.22;;;;;;;;;;5042487;28;20034;-63
2022/07/27 03:54:46;;;;;;;7.50;3.42;;;;;;;;;;5032183;28;20037;-63
2022/07/27 03:57:12;;;;;;;8.95;3.05;;;;;;;;;;5035994;28;20699;-62
2022/07/27 03:59:37;;;;;;;6.88;3.33;;;;;;;;;;5040189;28;20119;-63
2022/07/27 04:02:03;;;;;;;6.65;2.95;;;;;;;;;;5044012;28;20078;-63
2022/07/27 04:04:29;;;;;;;6.07;3.00;;;;;;;;;;5031493;28;20109;-62
2022/07/27 04:06:54;;;;;;;6.50;3.72;;;;;;;;;;5017624;28;20032;-62
2022/07/27 04:09:20;;;;;;;7.47;3.22;;;;;;;;;;5045270;28;20038;-62
2022/07/27 04:11:45;;;;;;;7.60;3.30;;;;;;;;;;5013826;28;20040;-61
2022/07/27 04:14:11;;;;;;;6.53;3.30;;;;;;;;;;4998057;28;20037;-62
2022/07/27 04:16:37;;;;;;;10.90;4.03;;;;;;;;;;5031329;28;20426;-62
2022/07/27 04:19:03;;;;;;;7.45;3.50;;;;;;;;;;5031030;28;20215;-61
2022/07/27 04:21:28;;;;;;;7.38;3.80;;;;;;;;;;5040115;28;20108;-62
2022/07/27 04:23:54;;;;;;;11.10;3.85;;;;;;;;;;5028935;28;20025;-62
2022/07/27 04:26:19;;;;;;;7.35;3.75;;;;;;;;;;5040609;28;20500;-62
2022/07/27 04:28:45;;;;;;;10.15;3.95;;;;;;;;;;5052554;28;20384;-61
2022/07/27 04:31:10;;;;;;;8.50;4.07;;;;;;;;;;5048929;28;20488;-63
2022/07/27 04:33:35;;;;;;;8.73;3.90;;;;;;;;;;5051049;28;20039;-62
2022/07/27 04:36:01;;;;;;;8.15;3.72;;;;;;;;;;5049562;28;20025;-62
2022/07/27 04:38:26;;;;;;;8.30;3.67;;;;;;;;;;5051489;28;20045;-62
2022/07/27 04:40:52;;;;;;;10.35;3.67;;;;;;;;;;5051503;28;20071;-62
2022/07/27 04:43:17;;;;;;;6.97;3.80;;;;;;;;;;5031696;28;20470;-62
2022/07/27 04:45:43;;;;;;;7.03;3.53;;;;;;;;;;5031537;28;20113;-62
2022/07/27 04:48:12;;;;;;;8.40;4.15;;;;;;;;;;5041184;28;20408;-63
2022/07/27 04:50:41;;;;;;;9.38;3.80;;;;;;;;;;5051201;28;20115;-63
2022/07/27 04:53:10;;;;;;;8.63;3.90;;;;;;;;;;5037403;28;20034;-62
2022/07/27 04:55:37;;;;;;;10.20;3.63;;;;;;;;;;5050941;28;20045;-62
2022/07/27 04:58:02;;;;;;;7.50;3.72;;;;;;;;;;5032629;28;20438;-62
2022/07/27 05:00:28;;;;;;;5.65;3.50;;;;;;;;;;5028593;28;20037;-73
2022/07/27 05:02:53;;;;;;;7.68;3.45;;;;;;;;;;5038804;28;20037;-70
2022/07/27 05:05:19;;;;;;;4.72;3.08;;;;;;;;;;5038304;28;20063;-66
2022/07/27 05:07:45;;;;;;;9.95;3.30;;;;;;;;;;5042708;28;20123;-66
2022/07/27 05:10:10;;;;;;;6.22;3.33;;;;;;;;;;5041358;28;20108;-67
2022/07/27 05:12:37;;;;;;;6.18;2.92;;;;;;;;;;5050043;28;20102;-67
2022/07/27 05:15:03;;;;;;;7.30;3.20;;;;;;;;;;5044715;28;20037;-65
2022/07/27 05:17:28;;;;;;;7.97;2.72;;;;;;;;;;5050312;28;20033;-71
2022/07/27 05:19:54;;;;;;;6.72;2.50;;;;;;;;;;5046070;28;20110;-78
2022/07/27 05:22:19;;;;;;;6.40;2.60;;;;;;;;;;5049434;28;20116;-70
2022/07/27 05:24:44;;;;;;;5.32;2.47;;;;;;;;;;5049835;28;20461;-70
2022/07/27 05:27:11;;;;;;;7.10;2.67;;;;;;;;;;5012703;28;20114;-70
2022/07/27 05:29:36;;;;;;;5.85;2.80;;;;;;;;;;5031265;28;20056;-69
2022/07/27 05:32:02;;;;;;;3.88;2.45;;;;;;;;;;5038678;28;20374;-70
2022/07/27 05:34:27;;;;;;;7.25;2.53;;;;;;;;;;5035054;28;20426;-69
2022/07/27 05:36:53;;;;;;;9.15;2.60;;;;;;;;;;5032649;28;20542;-73
2022/07/27 05:39:18;;;;;;;6.25;2.45;;;;;;;;;;5040247;28;20046;-72
2022/07/27 05:41:43;;;;;;;9.05;2.53;;;;;;;;;;5051038;28;20032;-70
2022/07/27 05:44:09;;;;;;;6.57;2.65;;;;;;;;;;5041700;28;20087;-72
2022/07/27 05:46:35;;;;;;;4.97;2.20;;;;;;;;;;5030978;28;20026;-71
2022/07/27 05:49:00;;;;;;;6.55;2.10;;;;;;;;;;5039980;28;20064;-72
2022/07/27 05:51:26;;;;;;;5.07;1.98;;;;;;;;;;5045763;28;20053;-70
2022/07/27 05:53:51;;;;;;;4.60;1.80;;;;;;;;;;5050589;28;20197;-69
2022/07/27 05:56:17;;;;;;;6.13;2.45;;;;;;;;;;5053838;28;20572;-68
2022/07/27 05:58:42;;;;;;;5.18;2.03;;;;;;;;;;5026752;28;20024;-69
2022/07/27 06:01:07;;;;;;;5.97;2.05;;;;;;;;;;5033815;28;20482;-70
2022/07/27 06:03:33;;;;;;;7.13;2.10;;;;;;;;;;5035310;28;20052;-72
2022/07/27 06:08:43;;;;;;;3.95;1.80;;;;;;;;;;5054982;28;20094;-68
2022/07/27 06:11:09;;;;;;;5.72;2.00;;;;;;;;;;5049068;28;20037;-73
2022/07/27 06:13:35;;;;;;;4.75;1.90;;;;;;;;;;5043371;28;20073;-70
2022/07/27 06:16:02;;;;;;;5.15;2.10;;;;;;;;;;5052807;28;20450;-70
2022/07/27 06:18:28;;;;;;;5.43;1.92;;;;;;;;;;5040719;28;20069;-70
2022/07/27 06:20:53;;;;;;;4.38;1.50;;;;;;;;;;5044157;28;20060;-75
2022/07/27 06:23:18;;;;;;;4.50;1.60;;;;;;;;;;5041643;28;20073;-71
2022/07/27 06:25:44;;;;;;;5.90;2.05;;;;;;;;;;5051794;28;20044;-71
2022/07/27 06:28:09;;;;;;;3.03;1.70;;;;;;;;;;5054811;28;20444;-71
2022/07/27 06:30:35;;;;;;;4.90;1.55;;;;;;;;;;5042188;28;20037;-72
2022/07/27 06:33:03;;;;;;;6.55;1.90;;;;;;;;;;5048897;28;20036;-72
2022/07/27 06:35:29;;;;;;;5.90;1.35;;;;;;;;;;5035130;28;20465;-70
2022/07/27 06:37:55;;;;;;;4.65;1.60;;;;;;;;;;5051053;28;20021;-78
2022/07/27 06:40:20;;;;;;;3.80;1.50;;;;;;;;;;5047588;28;20087;-68
2022/07/27 06:42:46;;;;;;;8.35;1.60;;;;;;;;;;5034945;28;20091;-70
2022/07/27 06:45:12;;;;;;;5.63;1.40;;;;;;;;;;5033909;28;20036;-70
2022/07/27 06:47:39;;;;;;;6.78;1.70;;;;;;;;;;5054458;28;20032;-71
2022/07/27 06:50:05;;;;;;;5.68;1.55;;;;;;;;;;5047811;28;20167;-72
2022/07/27 06:52:31;;;;;;;5.15;1.83;;;;;;;;;;5034323;28;20046;-71
2022/07/27 06:54:56;;;;;;;6.18;2.00;;;;;;;;;;5032964;28;20447;-76
2022/07/27 06:57:21;;;;;;;4.03;1.40;;;;;;;;;;5036175;28;20180;-71
2022/07/27 06:59:49;;;;;;;6.07;1.60;;;;;;;;;;5053383;28;20504;-69
2022/07/27 07:02:15;;;;;;;3.95;1.40;;;;;;;;;;5050544;28;20033;-62
2022/07/27 07:04:41;;;;;;;5.15;1.25;;;;;;;;;;5037703;28;20036;-65
2022/07/27 07:07:07;;;;;;;5.57;1.40;;;;;;;;;;5032918;28;20037;-64
2022/07/27 07:09:32;;;;;;;7.63;1.45;;;;;;;;;;5044690;28;20579;-65
2022/07/27 07:11:58;;;;;;;2.60;1.10;;;;;;;;;;5052459;28;20060;-66
2022/07/27 07:14:24;;;;;;;3.25;1.20;;;;;;;;;;5052273;28;20489;-65
2022/07/27 07:16:50;;;;;;;3.97;1.33;;;;;;;;;;5053366;28;20080;-66
2022/07/27 07:19:16;;;;;;;4.70;1.30;;;;;;;;;;5051208;28;20037;-65
2022/07/27 07:21:41;;;;;;;5.25;1.30;;;;;;;;;;5043813;28;20033;-66
2022/07/27 07:24:19;;;;;;;4.43;1.30;;;;;;;;;;5032319;28;20099;-65
2022/07/27 07:26:44;;;;;;;4.05;1.40;;;;;;;;;;5033336;28;20101;-65
2022/07/27 07:29:10;;;;;;;2.28;1.17;;;;;;;;;;5018216;28;20079;-65
2022/07/27 07:31:36;;;;;;;6.22;1.63;;;;;;;;;;5035831;28;20112;-66
2022/07/27 07:34:03;;;;;;;5.10;1.27;;;;;;;;;;5050789;28;20040;-63
2022/07/27 07:36:28;;;;;;;3.45;1.30;;;;;;;;;;5052664;28;20090;-62
2022/07/27 07:38:54;;;;;;;4.32;1.38;;;;;;;;;;5039432;28;20033;-65
2022/07/27 07:41:23;;;;;;;6.35;1.38;;;;;;;;;;5049961;28;20086;-65
2022/07/27 07:43:49;;;;;;;3.35;1.20;;;;;;;;;;5036994;28;20033;-65
2022/07/27 07:46:14;;;;;;;3.97;1.20;;;;;;;;;;5040243;28;20107;-65
2022/07/27 07:48:42;;;;;;;2.47;1.10;;;;;;;;;;5023472;28;20188;-66
2022/07/27 07:51:08;;;;;;;4.40;1.23;;;;;;;;;;5032230;28;20037;-64
2022/07/27 07:53:33;;;;;;;5.60;1.27;;;;;;;;;;5043133;28;20039;-64
2022/07/27 07:55:59;;;;;;;4.28;1.25;;;;;;;;;;5051918;28;20124;-64
2022/07/27 07:58:24;;;;;;;5.15;1.20;;;;;;;;;;5040821;28;20049;-65
2022/07/27 08:00:50;;;;;;;4.65;1.15;;;;;;;;;;5052834;28;20071;-65
2022/07/27 08:03:16;;;;;;;5.10;1.30;;;;;;;;;;5050877;28;20612;-64
2022/07/27 08:05:41;;;;;;;5.90;1.10;;;;;;;;;;5047210;28;20108;-66
2022/07/27 08:08:07;;;;;;;3.72;1.30;;;;;;;;;;5031478;28;20636;-66
2022/07/27 08:10:32;;;;;;;2.58;1.30;;;;;;;;;;5032497;28;20029;-65
2022/07/27 08:12:58;;;;;;;1.77;1.27;;;;;;;;;;5039100;28;20469;-67
2022/07/27 08:15:24;;;;;;;5.50;1.52;;;;;;;;;;5051438;28;20797;-63
2022/07/27 08:17:50;;;;;;;4.90;1.40;;;;;;;;;;5051800;28;20028;-66
2022/07/27 08:20:16;;;;;;;4.65;1.10;;;;;;;;;;5035944;28;20702;-64
2022/07/27 08:22:43;;;;;;;5.18;1.90;;;;;;;;;;5052283;28;20041;-65
2022/07/27 08:25:10;;;;;;;4.07;1.30;;;;;;;;;;5039959;28;20068;-65
2022/07/27 08:27:35;;;;;;;5.70;1.38;;;;;;;;;;5031097;28;20033;-65
2022/07/27 08:30:01;;;;;;;3.88;1.20;;;;;;;;;;5048876;28;20033;-64
2022/07/27 08:32:27;;;;;;;4.45;1.50;;;;;;;;;;5050442;28;20035;-65
2022/07/27 08:34:53;;;;;;;3.35;1.20;;;;;;;;;;5032072;28;20037;-65
2022/07/27 08:37:19;;;;;;;4.07;1.15;;;;;;;;;;5030739;28;20030;-66
2022/07/27 08:39:44;;;;;;;5.43;1.10;;;;;;;;;;5049858;28;20079;-65
2022/07/27 08:42:10;;;;;;;2.83;1.30;;;;;;;;;;5050911;28;20032;-66
2022/07/27 08:44:40;;;;;;;3.47;1.25;;;;;;;;;;5051087;28;20112;-65
2022/07/27 08:47:07;;;;;;;2.28;1.10;;;;;;;;;;5051135;28;20079;-65
2022/07/27 08:49:33;;;;;;;2.95;1.17;;;;;;;;;;5036906;28;20040;-61
2022/07/27 08:52:00;;;;;;;3.65;1.08;;;;;;;;;;5030607;28;20025;-65
2022/07/27 08:54:27;;;;;;;2.85;1.00;;;;;;;;;;5048630;28;20080;-65
2022/07/27 08:56:52;;;;;;;3.08;1.15;;;;;;;;;;5046976;28;20057;-65
2022/07/27 08:59:18;;;;;;;2.65;1.02;;;;;;;;;;5049198;28;20109;-65
2022/07/27 09:01:43;;;;;;;2.50;0.82;;;;;;;;;;5050282;28;20036;-66
2022/07/27 09:04:09;;;;;;;3.42;0.90;;;;;;;;;;5048309;28;20377;-66
2022/07/27 09:06:47;;;;;;;4.07;1.02;;;;;;;;;;5034561;28;20037;-66
2022/07/27 09:09:14;;;;;;;2.13;1.02;;;;;;;;;;5025871;28;20040;-65
2022/07/27 09:11:40;;;;;;;2.10;1.10;;;;;;;;;;5031973;28;20036;-65
2022/07/27 09:14:11;;;;;;;3.05;1.00;;;;;;;;;;5040706;28;20427;-65
2022/07/27 09:16:37;;;;;;;6.65;1.27;;;;;;;;;;5047192;28;20029;-64
2022/07/27 09:19:08;;;;;;;3.92;1.30;;;;;;;;;;5043960;28;20102;-64
2022/07/27 09:21:35;;;;;;;1.73;0.90;;;;;;;;;;5031846;28;20040;-65
2022/07/27 09:24:09;;;;;;;3.10;1.50;;;;;;;;;;5050981;28;20037;-67
2022/07/27 09:26:35;;;;;;;5.13;1.30;;;;;;;;;;5037295;28;20076;-66
2022/07/27 09:29:18;;;;;;;2.95;1.30;;;;;;;;;;5035665;28;20030;-65
2022/07/27 09:31:47;;;;;;;3.20;1.23;;;;;;;;;;5034695;28;20037;-63
2022/07/27 09:34:29;;;;;;;4.78;1.20;;;;;;;;;;5042162;28;20040;-64
2022/07/27 09:36:57;;;;;;;2.50;1.25;;;;;;;;;;5024492;28;20057;-65
2022/07/27 09:39:24;;;;;;;2.60;1.13;;;;;;;;;;5050407;28;20036;-64
2022/07/27 09:41:52;;;;;;;2.25;1.10;;;;;;;;;;5045736;28;20029;-64
2022/07/27 09:44:32;;;;;;;4.10;1.10;;;;;;;;;;5041700;28;20048;-66
2022/07/27 09:46:58;;;;;;;2.22;1.30;;;;;;;;;;5030663;28;20045;-66
2022/07/27 09:49:32;;;;;;;6.03;1.20;;;;;;;;;;5030888;28;20414;-63
2022/07/27 09:51:59;;;;;;;1.73;1.00;;;;;;;;;;5030819;28;20037;-63
2022/07/27 09:54:25;;;;;;;4.78;1.30;;;;;;;;;;5029976;28;20041;-65
2022/07/27 09:56:59;;;;;;;4.72;1.10;;;;;;;;;;5030812;28;20042;-65
2022/07/27 09:59:25;;;;;;;1.30;0.98;;;;;;;;;;5036895;28;20036;-64
2022/07/27 10:01:52;;;;;;;4.13;1.23;;;;;;;;;;5035870;28;20037;-63
2022/07/27 10:04:18;;;;;;;2.65;1.10;;;;;;;;;;5036352;28;20037;-63
2022/07/27 10:06:44;;;;;;;2.75;1.10;;;;;;;;;;5040412;28;20037;-64
2022/07/27 10:09:10;;;;;;;2.90;1.13;;;;;;;;;;5050207;28;20025;-65
2022/07/27 10:11:36;;;;;;;2.33;1.02;;;;;;;;;;5040749;28;20036;-65
2022/07/27 10:14:01;;;;;;;6.05;1.20;;;;;;;;;;5037269;28;20392;-64
2022/07/27 10:16:30;;;;;;;3.20;1.20;;;;;;;;;;5035858;28;20512;-63
2022/07/27 10:18:55;;;;;;;3.83;1.30;;;;;;;;;;5031830;28;20061;-64
2022/07/27 10:21:22;;;;;;;2.95;1.40;;;;;;;;;;5031333;28;20061;-63
2022/07/27 10:23:55;;;;;;;2.53;1.10;;;;;;;;;;5049534;28;20029;-62
2022/07/27 10:26:23;;;;;;;2.58;1.05;;;;;;;;;;5049736;28;20025;-63
2022/07/27 10:28:56;;;;;;;4.25;1.20;;;;;;;;;;5036303;28;20112;-62
2022/07/27 10:31:24;;;;;;;3.63;1.20;;;;;;;;;;5033159;28;20068;-62
2022/07/27 10:33:59;;;;;;;2.00;1.00;;;;;;;;;;5049376;28;20028;-62
2022/07/27 10:36:24;;;;;;;3.47;1.15;;;;;;;;;;5049402;28;20040;-63
2022/07/27 10:38:52;;;;;;;3.78;1.20;;;;;;;;;;5044881;28;20429;-63
2022/07/27 10:41:23;;;;;;;3.10;1.17;;;;;;;;;;5048930;28;20036;-62
2022/07/27 10:43:50;;;;;;;4.95;1.40;;;;;;;;;;5044367;28;20107;-62
2022/07/27 10:46:19;;;;;;;2.10;1.10;;;;;;;;;;5051364;28;20086;-62
2022/07/27 10:48:46;;;;;;;4.78;1.17;;;;;;;;;;5038785;28;20084;-64
2022/07/27 10:51:12;;;;;;;4.38;1.10;;;;;;;;;;5031151;28;20029;-66
2022/07/27 10:53:39;;;;;;;2.38;1.00;;;;;;;;;;5033906;28;20044;-65
2022/07/27 10:56:07;;;;;;;3.92;1.20;;;;;;;;;;5045368;28;20124;-64
2022/07/27 10:58:32;;;;;;;3.17;1.38;;;;;;;;;;5045353;28;20079;-65
2022/07/27 11:00:58;;;;;;;3.58;1.20;;;;;;;;;;5032616;28;20116;-65
2022/07/27 11:03:31;;;;;;;5.25;1.10;;;;;;;;;;5033875;28;20033;-64
2022/07/27 11:06:02;;;;;;;4.28;1.20;;;;;;;;;;5029324;28;20091;-64
2022/07/27 11:08:31;;;;;;;2.55;1.13;;;;;;;;;;5052958;28;20039;-66
2022/07/27 11:10:57;;;;;;;3.85;1.40;;;;;;;;;;5021613;28;20040;-71
2022/07/27 11:13:24;;;;;;;3.88;1.30;;;;;;;;;;5033717;28;20033;-68
2022/07/27 11:16:10;;;;;;;3.40;1.30;;;;;;;;;;5040756;28;20218;-68
2022/07/27 11:18:38;;;;;;;3.13;1.10;;;;;;;;;;5024854;28;20032;-70
2022/07/27 11:21:19;;;;;;;5.95;1.38;;;;;;;;;;5049889;28;20043;-69
2022/07/27 11:23:47;;;;;;;3.22;1.20;;;;;;;;;;5033518;28;20544;-69
2022/07/27 11:26:13;;;;;;;4.82;1.23;;;;;;;;;;5038913;28;20041;-68
2022/07/27 11:28:39;;;;;;;4.53;1.50;;;;;;;;;;5039761;28;20033;-69
2022/07/27 11:31:07;;;;;;;3.40;1.58;;;;;;;;;;5039739;28;20112;-66
2022/07/27 11:33:33;;;;;;;2.75;1.23;;;;;;;;;;5053231;28;20131;-65
2022/07/27 11:36:01;;;;;;;5.15;1.48;;;;;;;;;;5040365;28;20525;-67
2022/07/27 11:38:26;;;;;;;6.10;1.25;;;;;;;;;;5032825;28;20029;-66
2022/07/27 11:40:53;;;;;;;2.95;1.30;;;;;;;;;;5034495;28;20087;-69
2022/07/27 11:43:34;;;;;;;2.75;1.20;;;;;;;;;;5048049;28;20546;-68
2022/07/27 11:46:22;;;;;;;3.42;1.33;;;;;;;;;;5039276;28;20033;-69
2022/07/27 11:48:58;;;;;;;3.70;1.27;;;;;;;;;;5047513;28;20056;-69
2022/07/27 11:51:24;;;;;;;3.95;1.33;;;;;;;;;;5053215;28;20033;-67
2022/07/27 11:54:01;;;;;;;5.53;1.50;;;;;;;;;;5038001;28;20071;-70
2022/07/27 11:56:31;;;;;;;4.63;1.17;;;;;;;;;;5033056;28;20074;-68
2022/07/27 11:59:04;;;;;;;3.58;1.10;;;;;;;;;;5031636;28;20033;-71
2022/07/27 12:01:33;;;;;;;2.45;1.10;;;;;;;;;;5032814;28;20029;-68
2022/07/27 12:04:03;;;;;;;4.72;1.42;;;;;;;;;;5014274;28;20044;-70
2022/07/27 12:06:32;;;;;;;6.63;1.77;;;;;;;;;;5032449;28;20111;-69
2022/07/27 12:08:58;;;;;;;2.88;1.48;;;;;;;;;;5034659;28;20158;-73
2022/07/27 12:11:58;;;;;;;4.82;1.42;;;;;;;;;;5039523;28;20049;-70
2022/07/27 12:14:38;;;;;;;1.90;1.40;;;;;;;;;;5034864;28;20052;-70
2022/07/27 12:17:28;;;;;;;9.20;1.50;;;;;;;;;;5038739;28;20044;-68
2022/07/27 12:20:00;;;;;;;3.00;1.42;;;;;;;;;;5032432;28;20037;-72
2022/07/27 12:22:30;;;;;;;2.70;1.40;;;;;;;;;;5044947;28;20080;-70
2022/07/27 12:24:57;;;;;;;3.47;1.40;;;;;;;;;;5051660;28;20032;-69
2022/07/27 12:27:25;;;;;;;4.10;1.40;;;;;;;;;;5035202;28;20033;-70
2022/07/27 12:29:57;;;;;;;2.72;1.30;;;;;;;;;;5031994;28;20030;-68
2022/07/27 12:32:23;;;;;;;3.22;1.20;;;;;;;;;;5033079;28;20108;-66
2022/07/27 12:34:49;;;;;;;3.35;1.17;;;;;;;;;;5032430;28;20097;-66
2022/07/27 12:37:15;;;;;;;3.70;1.20;;;;;;;;;;5044455;28;20620;-68
2022/07/27 12:39:45;;;;;;;3.50;1.10;;;;;;;;;;5045277;28;20032;-68
2022/07/27 12:42:11;;;;;;;2.47;1.20;;;;;;;;;;5030932;28;20061;-68
2022/07/27 12:44:40;;;;;;;3.75;1.48;;;;;;;;;;5032984;28;20097;-69
2022/07/27 12:50:09;;;;;;;3.45;1.20;;;;;;;;;;5030907;28;20436;-68
2022/07/27 12:52:37;;;;;;;2.50;1.27;;;;;;;;;;5031761;28;20087;-68
2022/07/27 12:55:04;;;;;;;3.80;1.20;;;;;;;;;;5036315;28;20037;-69
2022/07/27 12:57:29;;;;;;;2.80;1.23;;;;;;;;;;5051089;28;20044;-68
2022/07/27 12:59:55;;;;;;;2.22;1.20;;;;;;;;;;5050632;28;20074;-72
2022/07/27 13:02:20;;;;;;;3.17;1.20;;;;;;;;;;5051579;28;20404;-69
2022/07/27 13:04:47;;;;;;;2.40;1.20;;;;;;;;;;5045261;28;20025;-70
2022/07/27 13:07:13;;;;;;;3.03;1.10;;;;;;;;;;5033343;28;20470;-73
2022/07/27 13:09:39;;;;;;;4.63;1.30;;;;;;;;;;5038309;28;20115;-70
2022/07/27 13:12:05;;;;;;;7.35;1.30;;;;;;;;;;5044179;28;20152;-69
2022/07/27 13:14:30;;;;;;;3.60;1.10;;;;;;;;;;5042039;28;20038;-70
2022/07/27 13:16:56;;;;;;;3.60;1.13;;;;;;;;;;5021697;28;20038;-72
2022/07/27 13:19:21;;;;;;;5.72;1.23;;;;;;;;;;5030354;28;20038;-70
2022/07/27 13:21:48;;;;;;;3.08;1.10;;;;;;;;;;5031314;28;20032;-68
2022/07/27 13:24:13;;;;;;;2.65;1.13;;;;;;;;;;5034948;28;20503;-67
2022/07/27 13:26:39;;;;;;;3.13;1.10;;;;;;;;;;5028339;28;20478;-69
2022/07/27 13:29:05;;;;;;;3.40;1.20;;;;;;;;;;5039234;28;20086;-69
2022/07/27 13:31:30;;;;;;;5.60;1.55;;;;;;;;;;5045225;28;20029;-70
2022/07/27 13:33:56;;;;;;;1.77;1.10;;;;;;;;;;5030512;28;20026;-72
2022/07/27 13:36:21;;;;;;;4.55;1.30;;;;;;;;;;5014838;28;20470;-70
2022/07/27 13:38:46;;;;;;;3.25;1.30;;;;;;;;;;5030495;28;20058;-69
2022/07/27 13:41:12;;;;;;;3.58;1.50;;;;;;;;;;5027090;28;20470;-68
2022/07/27 13:43:37;;;;;;;3.33;1.10;;;;;;;;;;5050923;28;20029;-71
2022/07/27 13:46:03;;;;;;;4.55;1.45;;;;;;;;;;5045819;28;20485;-71
2022/07/27 13:48:28;;;;;;;3.15;1.10;;;;;;;;;;5029292;28;20034;-77
2022/07/27 13:50:54;;;;;;;4.07;1.10;;;;;;;;;;5033245;28;20125;-69
2022/07/27 13:53:20;;;;;;;2.80;1.20;;;;;;;;;;5030523;28;20047;-70
2022/07/27 13:55:45;;;;;;;2.38;1.23;;;;;;;;;;5049022;28;20465;-68
2022/07/27 13:58:11;;;;;;;2.80;1.20;;;;;;;;;;5050251;28;20433;-69
2022/07/27 14:00:37;;;;;;;4.97;1.20;;;;;;;;;;5034032;28;20481;-68
2022/07/27 14:03:03;;;;;;;3.42;1.20;;;;;;;;;;5045005;28;20083;-70
2022/07/27 14:05:29;;;;;;;5.47;1.33;;;;;;;;;;5048464;28;20037;-69
2022/07/27 14:07:54;;;;;;;7.05;1.15;;;;;;;;;;5033401;28;20535;-70
2022/07/27 14:10:38;;;;;;;2.63;1.15;;;;;;;;;;5047911;28;20032;-69
2022/07/27 14:13:07;;;;;;;3.58;1.20;;;;;;;;;;5047317;28;20040;-69
2022/07/27 14:15:33;;;;;;;5.25;1.45;;;;;;;;;;5034586;28;20029;-69
2022/07/27 14:17:58;;;;;;;3.20;1.20;;;;;;;;;;5052063;28;20139;-70
2022/07/27 14:20:24;;;;;;;6.18;1.10;;;;;;;;;;5054756;28;20033;-70
2022/07/27 14:22:49;;;;;;;3.97;1.20;;;;;;;;;;5050431;28;20029;-69
2022/07/27 14:25:15;;;;;;;5.25;1.20;;;;;;;;;;5037233;28;20109;-67
2022/07/27 14:27:40;;;;;;;6.97;1.40;;;;;;;;;;5036603;28;20029;-64
2022/07/27 14:30:07;;;;;;;4.93;1.17;;;;;;;;;;5052955;28;20075;-64
2022/07/27 14:32:33;;;;;;;4.85;1.20;;;;;;;;;;5043727;28;20041;-64
2022/07/27 14:34:59;;;;;;;3.08;1.38;;;;;;;;;;5033225;28;20045;-66
2022/07/27 14:37:24;;;;;;;3.03;1.20;;;;;;;;;;5053795;28;20037;-65
2022/07/27 14:39:50;;;;;;;6.35;1.58;;;;;;;;;;5051076;28;20120;-64
2022/07/27 14:42:18;;;;;;;5.57;1.40;;;;;;;;;;5032400;28;20095;-65
2022/07/27 14:44:43;;;;;;;3.97;1.60;;;;;;;;;;5042203;28;20033;-64
2022/07/27 14:47:09;;;;;;;3.83;1.10;;;;;;;;;;5033358;28;20361;-65
2022/07/27 14:49:34;;;;;;;6.38;1.30;;;;;;;;;;5039303;28;20029;-65